sensor_id;sensor_type;location;lat;lon;timestamp;P1;P2;P0
64229;PMS5003;50547;49.498;0.092;2022-07-30T00:02:22;6;6;
64229;PMS5003;50547;49.498;0.092;2022-07-30T00:04:51;7;7;
64229;PMS5003;50547;49.498;0.092;2022-07-30T00:07:20;6;6;
64229;PMS5003;50547;49.498;0.092;2022-07-30T00:09:49;7;7;
64229;PMS5003;50547;49.498;0.092;2022-07-30T00:12:18;6;6;
64229;PMS5003;50547;49.498;0.092;2022-07-30T00:14:47;6;6;
64229;PMS5003;50547;49.498;0.092;2022-07-30T00:17:16;6;6;
64229;PMS5003;50547;49.498;0.092;2022-07-30T00:19:45;6;6;
64229;PMS5003;50547;49.498;0.092;2022-07-30T00:22:14;7;7;
64229;PMS5003;50547;49.498;0.092;2022-07-30T00:24:43;6;6;
64229;PMS5003;50547;49.498;0.092;2022-07-30T00:27:12;6;6;
64229;PMS5003;50547;49.498;0.092;2022-07-30T00:29:41;6;6;
64229;PMS5003;50547;49.498;0.092;2022-07-30T00:32:10;6;6;
64229;PMS5003;50547;49.498;0.092;2022-07-30T00:34:39;6;6;
64229;PMS5003;50547;49.498;0.092;2022-07-30T00:37:09;6;6;
64229;PMS5003;50547;49.498;0.092;2022-07-30T00:39:38;6;6;
64229;PMS5003;50547;49.498;0.092;2022-07-30T00:42:07;6;6;
64229;PMS5003;50547;49.498;0.092;2022-07-30T00:44:42;6;6;
64229;PMS5003;50547;49.498;0.092;2022-07-30T00:47:11;6;6;
64229;PMS5003;50547;49.498;0.092;2022-07-30T00:49:40;6;6;
64229;PMS5003;50547;49.498;0.092;2022-07-30T00:52:09;6;6;
64229;PMS5003;50547;49.498;0.092;2022-07-30T00:54:38;7;7;
64229;PMS5003;50547;49.498;0.092;2022-07-30T00:57:07;6;6;
64229;PMS5003;50547;49.498;0.092;2022-07-30T00:59:36;7;7;
64229;PMS5003;50547;49.498;0.092;2022-07-30T01:02:05;6;6;
64229;PMS5003;50547;49.498;0.092;2022-07-30T01:04:34;7;7;
64229;PMS5003;50547;49.498;0.092;2022-07-30T01:07:04;7;7;
64229;PMS5003;50547;49.498;0.092;2022-07-30T01:09:33;6;6;
64229;PMS5003;50547;49.498;0.092;2022-07-30T01:12:02;7;7;
64229;PMS5003;50547;49.498;0.092;2022-07-30T01:14:32;7;7;
64229;PMS5003;50547;49.498;0.092;2022-07-30T01:17:02;6;6;
64229;PMS5003;50547;49.498;0.092;2022-07-30T01:19:33;6;6;
64229;PMS5003;50547;49.498;0.092;2022-07-30T01:22:07;7;7;
64229;PMS5003;50547;49.498;0.092;2022-07-30T01:24:40;7;7;
64229;PMS5003;50547;49.498;0.092;2022-07-30T01:27:14;7;7;
64229;PMS5003;50547;49.498;0.092;2022-07-30T01:29:45;7;7;
64229;PMS5003;50547;49.498;0.092;2022-07-30T01:32:16;7;7;
64229;PMS5003;50547;49.498;0.092;2022-07-30T01:34:49;8;8;
64229;PMS5003;50547;49.498;0.092;2022-07-30T01:37:20;6;6;
64229;PMS5003;50547;49.498;0.092;2022-07-30T01:39:50;8;8;
64229;PMS5003;50547;49.498;0.092;2022-07-30T01:42:20;8;8;
64229;PMS5003;50547;49.498;0.092;2022-07-30T01:44:54;8;8;
64229;PMS5003;50547;49.498;0.092;2022-07-30T01:47:24;9;9;
64229;PMS5003;50547;49.498;0.092;2022-07-30T01:49:56;10;10;
64229;PMS5003;50547;49.498;0.092;2022-07-30T01:52:26;10;10;
64229;PMS5003;50547;49.498;0.092;2022-07-30T01:55:00;10;10;
64229;PMS5003;50547;49.498;0.092;2022-07-30T01:57:30;11;11;
64229;PMS5003;50547;49.498;0.092;2022-07-30T02:00:04;11;11;
64229;PMS5003;50547;49.498;0.092;2022-07-30T02:02:34;11;11;
64229;PMS5003;50547;49.498;0.092;2022-07-30T02:05:04;11;11;
64229;PMS5003;50547;49.498;0.092;2022-07-30T02:07:35;11;11;
64229;PMS5003;50547;49.498;0.092;2022-07-30T02:10:10;13;13;
64229;PMS5003;50547;49.498;0.092;2022-07-30T02:12:42;13;13;
64229;PMS5003;50547;49.498;0.092;2022-07-30T02:15:17;13;13;
64229;PMS5003;50547;49.498;0.092;2022-07-30T02:17:54;13;13;
64229;PMS5003;50547;49.498;0.092;2022-07-30T02:20:28;13;13;
64229;PMS5003;50547;49.498;0.092;2022-07-30T02:23:00;13;13;
64229;PMS5003;50547;49.498;0.092;2022-07-30T02:25:31;13;13;
64229;PMS5003;50547;49.498;0.092;2022-07-30T02:28:04;12;12;
64229;PMS5003;50547;49.498;0.092;2022-07-30T02:30:39;13;13;
64229;PMS5003;50547;49.498;0.092;2022-07-30T02:33:13;11;11;
64229;PMS5003;50547;49.498;0.092;2022-07-30T02:35:44;13;13;
64229;PMS5003;50547;49.498;0.092;2022-07-30T02:38:13;13;13;
64229;PMS5003;50547;49.498;0.092;2022-07-30T02:40:45;11;11;
64229;PMS5003;50547;49.498;0.092;2022-07-30T02:43:15;11;11;
64229;PMS5003;50547;49.498;0.092;2022-07-30T02:45:45;11;11;
64229;PMS5003;50547;49.498;0.092;2022-07-30T02:48:16;11;11;
64229;PMS5003;50547;49.498;0.092;2022-07-30T02:50:48;11;11;
64229;PMS5003;50547;49.498;0.092;2022-07-30T02:53:19;11;11;
64229;PMS5003;50547;49.498;0.092;2022-07-30T02:55:50;11;11;
64229;PMS5003;50547;49.498;0.092;2022-07-30T02:58:22;13;13;
64229;PMS5003;50547;49.498;0.092;2022-07-30T03:00:53;11;11;
64229;PMS5003;50547;49.498;0.092;2022-07-30T03:03:24;11;11;
64229;PMS5003;50547;49.498;0.092;2022-07-30T03:05:54;11;11;
64229;PMS5003;50547;49.498;0.092;2022-07-30T03:08:29;11;11;
64229;PMS5003;50547;49.498;0.092;2022-07-30T03:11:00;10;10;
64229;PMS5003;50547;49.498;0.092;2022-07-30T03:13:30;11;11;
64229;PMS5003;50547;49.498;0.092;2022-07-30T03:15:59;11;11;
64229;PMS5003;50547;49.498;0.092;2022-07-30T03:18:33;11;11;
64229;PMS5003;50547;49.498;0.092;2022-07-30T03:21:05;10;10;
64229;PMS5003;50547;49.498;0.092;2022-07-30T03:23:36;11;11;
64229;PMS5003;50547;49.498;0.092;2022-07-30T03:26:07;11;11;
64229;PMS5003;50547;49.498;0.092;2022-07-30T03:28:38;11;11;
64229;PMS5003;50547;49.498;0.092;2022-07-30T03:31:08;11;11;
64229;PMS5003;50547;49.498;0.092;2022-07-30T03:33:38;11;11;
64229;PMS5003;50547;49.498;0.092;2022-07-30T03:36:08;11;11;
64229;PMS5003;50547;49.498;0.092;2022-07-30T03:38:40;11;11;
64229;PMS5003;50547;49.498;0.092;2022-07-30T03:41:11;11;11;
64229;PMS5003;50547;49.498;0.092;2022-07-30T03:43:41;11;11;
64229;PMS5003;50547;49.498;0.092;2022-07-30T03:46:11;11;11;
64229;PMS5003;50547;49.498;0.092;2022-07-30T03:48:41;11;11;
64229;PMS5003;50547;49.498;0.092;2022-07-30T03:51:12;13;13;
64229;PMS5003;50547;49.498;0.092;2022-07-30T03:53:41;11;11;
64229;PMS5003;50547;49.498;0.092;2022-07-30T03:56:12;13;13;
64229;PMS5003;50547;49.498;0.092;2022-07-30T03:58:42;11;11;
64229;PMS5003;50547;49.498;0.092;2022-07-30T04:01:11;12;12;
64229;PMS5003;50547;49.498;0.092;2022-07-30T04:03:40;13;13;
64229;PMS5003;50547;49.498;0.092;2022-07-30T04:06:09;13;13;
64229;PMS5003;50547;49.498;0.092;2022-07-30T04:08:39;13;13;
64229;PMS5003;50547;49.498;0.092;2022-07-30T04:11:18;13;13;
64229;PMS5003;50547;49.498;0.092;2022-07-30T04:13:47;13;13;
64229;PMS5003;50547;49.498;0.092;2022-07-30T04:16:17;11;11;
64229;PMS5003;50547;49.498;0.092;2022-07-30T04:18:52;13;13;
64229;PMS5003;50547;49.498;0.092;2022-07-30T04:21:23;11;11;
64229;PMS5003;50547;49.498;0.092;2022-07-30T04:23:53;11;11;
64229;PMS5003;50547;49.498;0.092;2022-07-30T04:26:23;13;13;
64229;PMS5003;50547;49.498;0.092;2022-07-30T04:28:52;13;13;
64229;PMS5003;50547;49.498;0.092;2022-07-30T04:31:22;11;11;
64229;PMS5003;50547;49.498;0.092;2022-07-30T04:33:51;11;11;
64229;PMS5003;50547;49.498;0.092;2022-07-30T04:36:20;11;11;
64229;PMS5003;50547;49.498;0.092;2022-07-30T04:38:49;11;11;
64229;PMS5003;50547;49.498;0.092;2022-07-30T04:41:18;11;11;
64229;PMS5003;50547;49.498;0.092;2022-07-30T04:43:47;11;11;
64229;PMS5003;50547;49.498;0.092;2022-07-30T04:46:16;11;11;
64229;PMS5003;50547;49.498;0.092;2022-07-30T04:48:46;11;11;
64229;PMS5003;50547;49.498;0.092;2022-07-30T04:51:17;11;11;
64229;PMS5003;50547;49.498;0.092;2022-07-30T04:53:53;11;11;
64229;PMS5003;50547;49.498;0.092;2022-07-30T04:56:25;11;11;
64229;PMS5003;50547;49.498;0.092;2022-07-30T04:58:57;11;11;
64229;PMS5003;50547;49.498;0.092;2022-07-30T05:01:29;11;11;
64229;PMS5003;50547;49.498;0.092;2022-07-30T05:04:01;11;11;
64229;PMS5003;50547;49.498;0.092;2022-07-30T05:06:32;11;11;
64229;PMS5003;50547;49.498;0.092;2022-07-30T05:09:07;11;11;
64229;PMS5003;50547;49.498;0.092;2022-07-30T05:11:36;11;11;
64229;PMS5003;50547;49.498;0.092;2022-07-30T05:14:05;11;11;
64229;PMS5003;50547;49.498;0.092;2022-07-30T05:16:34;11;11;
64229;PMS5003;50547;49.498;0.092;2022-07-30T05:19:03;13;13;
64229;PMS5003;50547;49.498;0.092;2022-07-30T05:21:32;13;13;
64229;PMS5003;50547;49.498;0.092;2022-07-30T05:24:01;13;13;
64229;PMS5003;50547;49.498;0.092;2022-07-30T05:26:31;13;13;
64229;PMS5003;50547;49.498;0.092;2022-07-30T05:29:00;11;11;
64229;PMS5003;50547;49.498;0.092;2022-07-30T05:31:29;13;13;
64229;PMS5003;50547;49.498;0.092;2022-07-30T05:33:58;13;13;
64229;PMS5003;50547;49.498;0.092;2022-07-30T05:36:27;13;13;
64229;PMS5003;50547;49.498;0.092;2022-07-30T05:38:56;14;14;
64229;PMS5003;50547;49.498;0.092;2022-07-30T05:41:25;14;14;
64229;PMS5003;50547;49.498;0.092;2022-07-30T05:43:54;14;14;
64229;PMS5003;50547;49.498;0.092;2022-07-30T05:46:23;14;14;
64229;PMS5003;50547;49.498;0.092;2022-07-30T05:48:52;15;14;
64229;PMS5003;50547;49.498;0.092;2022-07-30T05:51:22;17;15;
64229;PMS5003;50547;49.498;0.092;2022-07-30T05:53:51;18;16;
64229;PMS5003;50547;49.498;0.092;2022-07-30T05:56:20;19;17;
64229;PMS5003;50547;49.498;0.092;2022-07-30T05:58:48;19;17;
64229;PMS5003;50547;49.498;0.092;2022-07-30T06:01:18;20;17;
64229;PMS5003;50547;49.498;0.092;2022-07-30T06:03:47;19;17;
64229;PMS5003;50547;49.498;0.092;2022-07-30T06:06:16;20;17;
64229;PMS5003;50547;49.498;0.092;2022-07-30T06:08:50;19;17;
64229;PMS5003;50547;49.498;0.092;2022-07-30T06:11:19;20;17;
64229;PMS5003;50547;49.498;0.092;2022-07-30T06:13:48;20;17;
64229;PMS5003;50547;49.498;0.092;2022-07-30T06:16:17;19;17;
64229;PMS5003;50547;49.498;0.092;2022-07-30T06:18:46;18;16;
64229;PMS5003;50547;49.498;0.092;2022-07-30T06:21:15;18;16;
64229;PMS5003;50547;49.498;0.092;2022-07-30T06:23:44;17;15;
64229;PMS5003;50547;49.498;0.092;2022-07-30T06:26:13;14;14;
64229;PMS5003;50547;49.498;0.092;2022-07-30T06:28:42;14;14;
64229;PMS5003;50547;49.498;0.092;2022-07-30T06:31:11;13;13;
64229;PMS5003;50547;49.498;0.092;2022-07-30T06:33:40;11;11;
64229;PMS5003;50547;49.498;0.092;2022-07-30T06:36:06;10;10;
64229;PMS5003;50547;49.498;0.092;2022-07-30T06:38:35;8;8;
64229;PMS5003;50547;49.498;0.092;2022-07-30T06:41:04;7;7;
64229;PMS5003;50547;49.498;0.092;2022-07-30T06:43:33;7;7;
64229;PMS5003;50547;49.498;0.092;2022-07-30T06:46:02;6;6;
64229;PMS5003;50547;49.498;0.092;2022-07-30T06:48:28;7;7;
64229;PMS5003;50547;49.498;0.092;2022-07-30T06:50:58;7;7;
64229;PMS5003;50547;49.498;0.092;2022-07-30T06:53:27;8;8;
64229;PMS5003;50547;49.498;0.092;2022-07-30T06:55:56;8;8;
64229;PMS5003;50547;49.498;0.092;2022-07-30T06:58:25;9;9;
64229;PMS5003;50547;49.498;0.092;2022-07-30T07:00:54;9;9;
64229;PMS5003;50547;49.498;0.092;2022-07-30T07:03:24;8;8;
64229;PMS5003;50547;49.498;0.092;2022-07-30T07:05:53;10;10;
64229;PMS5003;50547;49.498;0.092;2022-07-30T07:08:22;9;9;
64229;PMS5003;50547;49.498;0.092;2022-07-30T07:10:52;8;8;
64229;PMS5003;50547;49.498;0.092;2022-07-30T07:13:21;10;10;
64229;PMS5003;50547;49.498;0.092;2022-07-30T07:15:50;10;10;
64229;PMS5003;50547;49.498;0.092;2022-07-30T07:18:16;10;10;
64229;PMS5003;50547;49.498;0.092;2022-07-30T07:20:45;9;9;
64229;PMS5003;50547;49.498;0.092;2022-07-30T07:23:14;8;8;
64229;PMS5003;50547;49.498;0.092;2022-07-30T07:25:40;8;8;
64229;PMS5003;50547;49.498;0.092;2022-07-30T07:28:29;8;8;
64229;PMS5003;50547;49.498;0.092;2022-07-30T07:30:58;8;8;
64229;PMS5003;50547;49.498;0.092;2022-07-30T07:33:24;8;8;
64229;PMS5003;50547;49.498;0.092;2022-07-30T07:35:53;8;8;
64229;PMS5003;50547;49.498;0.092;2022-07-30T07:38:22;7;7;
64229;PMS5003;50547;49.498;0.092;2022-07-30T07:40:48;7;7;
64229;PMS5003;50547;49.498;0.092;2022-07-30T07:43:17;6;6;
64229;PMS5003;50547;49.498;0.092;2022-07-30T07:45:46;6;6;
64229;PMS5003;50547;49.498;0.092;2022-07-30T07:48:12;7;7;
64229;PMS5003;50547;49.498;0.092;2022-07-30T07:50:39;5;5;
64229;PMS5003;50547;49.498;0.092;2022-07-30T07:53:08;5;5;
64229;PMS5003;50547;49.498;0.092;2022-07-30T07:55:38;6;6;
64229;PMS5003;50547;49.498;0.092;2022-07-30T07:58:07;5;5;
64229;PMS5003;50547;49.498;0.092;2022-07-30T08:00:36;4;4;
64229;PMS5003;50547;49.498;0.092;2022-07-30T08:03:05;4;4;
64229;PMS5003;50547;49.498;0.092;2022-07-30T08:05:34;4;4;
64229;PMS5003;50547;49.498;0.092;2022-07-30T08:08:03;5;5;
64229;PMS5003;50547;49.498;0.092;2022-07-30T08:10:33;6;6;
64229;PMS5003;50547;49.498;0.092;2022-07-30T08:13:02;4;4;
64229;PMS5003;50547;49.498;0.092;2022-07-30T08:15:31;5;5;
64229;PMS5003;50547;49.498;0.092;2022-07-30T08:18:00;5;5;
64229;PMS5003;50547;49.498;0.092;2022-07-30T08:20:29;4;4;
64229;PMS5003;50547;49.498;0.092;2022-07-30T08:22:58;4;4;
64229;PMS5003;50547;49.498;0.092;2022-07-30T08:25:27;5;5;
64229;PMS5003;50547;49.498;0.092;2022-07-30T08:27:56;4;4;
64229;PMS5003;50547;49.498;0.092;2022-07-30T08:30:23;4;4;
64229;PMS5003;50547;49.498;0.092;2022-07-30T08:32:52;6;6;
64229;PMS5003;50547;49.498;0.092;2022-07-30T08:35:22;8;8;
64229;PMS5003;50547;49.498;0.092;2022-07-30T08:37:51;10;10;
64229;PMS5003;50547;49.498;0.092;2022-07-30T08:40:20;10;10;
64229;PMS5003;50547;49.498;0.092;2022-07-30T08:42:53;10;10;
64229;PMS5003;50547;49.498;0.092;2022-07-30T08:45:23;9;9;
64229;PMS5003;50547;49.498;0.092;2022-07-30T08:47:52;8;8;
64229;PMS5003;50547;49.498;0.092;2022-07-30T08:50:24;8;8;
64229;PMS5003;50547;49.498;0.092;2022-07-30T08:52:54;7;7;
64229;PMS5003;50547;49.498;0.092;2022-07-30T08:55:23;7;7;
64229;PMS5003;50547;49.498;0.092;2022-07-30T08:57:53;6;6;
64229;PMS5003;50547;49.498;0.092;2022-07-30T09:00:22;6;6;
64229;PMS5003;50547;49.498;0.092;2022-07-30T09:02:51;6;6;
64229;PMS5003;50547;49.498;0.092;2022-07-30T09:05:21;5;5;
64229;PMS5003;50547;49.498;0.092;2022-07-30T09:07:51;5;5;
64229;PMS5003;50547;49.498;0.092;2022-07-30T09:10:20;5;5;
64229;PMS5003;50547;49.498;0.092;2022-07-30T09:12:51;7;7;
64229;PMS5003;50547;49.498;0.092;2022-07-30T09:15:20;6;6;
64229;PMS5003;50547;49.498;0.092;2022-07-30T09:17:55;7;7;
64229;PMS5003;50547;49.498;0.092;2022-07-30T09:20:27;8;8;
64229;PMS5003;50547;49.498;0.092;2022-07-30T09:22:58;8;8;
64229;PMS5003;50547;49.498;0.092;2022-07-30T09:25:33;7;7;
64229;PMS5003;50547;49.498;0.092;2022-07-30T09:28:04;7;7;
64229;PMS5003;50547;49.498;0.092;2022-07-30T09:30:49;8;8;
64229;PMS5003;50547;49.498;0.092;2022-07-30T09:33:29;8;8;
64229;PMS5003;50547;49.498;0.092;2022-07-30T09:36:00;8;8;
64229;PMS5003;50547;49.498;0.092;2022-07-30T09:38:38;8;8;
64229;PMS5003;50547;49.498;0.092;2022-07-30T09:41:10;8;8;
64229;PMS5003;50547;49.498;0.092;2022-07-30T09:43:41;8;8;
64229;PMS5003;50547;49.498;0.092;2022-07-30T09:46:12;7;7;
64229;PMS5003;50547;49.498;0.092;2022-07-30T09:48:42;7;7;
64229;PMS5003;50547;49.498;0.092;2022-07-30T09:51:08;7;7;
64229;PMS5003;50547;49.498;0.092;2022-07-30T09:53:52;7;7;
64229;PMS5003;50547;49.498;0.092;2022-07-30T09:56:23;4;4;
64229;PMS5003;50547;49.498;0.092;2022-07-30T09:58:52;4;4;
64229;PMS5003;50547;49.498;0.092;2022-07-30T10:01:22;5;5;
64229;PMS5003;50547;49.498;0.092;2022-07-30T10:03:51;6;6;
64229;PMS5003;50547;49.498;0.092;2022-07-30T10:06:30;5;5;
64229;PMS5003;50547;49.498;0.092;2022-07-30T10:09:00;5;5;
64229;PMS5003;50547;49.498;0.092;2022-07-30T10:11:29;4;4;
64229;PMS5003;50547;49.498;0.092;2022-07-30T10:13:58;5;5;
64229;PMS5003;50547;49.498;0.092;2022-07-30T10:16:30;5;5;
64229;PMS5003;50547;49.498;0.092;2022-07-30T10:18:59;5;5;
64229;PMS5003;50547;49.498;0.092;2022-07-30T10:21:29;4;4;
64229;PMS5003;50547;49.498;0.092;2022-07-30T10:23:58;4;4;
64229;PMS5003;50547;49.498;0.092;2022-07-30T10:26:29;4;4;
64229;PMS5003;50547;49.498;0.092;2022-07-30T10:29:03;5;5;
64229;PMS5003;50547;49.498;0.092;2022-07-30T10:31:32;4;4;
64229;PMS5003;50547;49.498;0.092;2022-07-30T10:34:02;4;4;
64229;PMS5003;50547;49.498;0.092;2022-07-30T10:36:31;4;4;
64229;PMS5003;50547;49.498;0.092;2022-07-30T10:39:02;4;4;
64229;PMS5003;50547;49.498;0.092;2022-07-30T10:41:38;6;6;
64229;PMS5003;50547;49.498;0.092;2022-07-30T10:44:19;4;4;
64229;PMS5003;50547;49.498;0.092;2022-07-30T10:47:02;4;4;
64229;PMS5003;50547;49.498;0.092;2022-07-30T10:49:34;4;4;
64229;PMS5003;50547;49.498;0.092;2022-07-30T10:52:04;4;4;
64229;PMS5003;50547;49.498;0.092;2022-07-30T10:54:34;4;4;
64229;PMS5003;50547;49.498;0.092;2022-07-30T10:57:05;4;4;
64229;PMS5003;50547;49.498;0.092;2022-07-30T11:00:09;4;4;
64229;PMS5003;50547;49.498;0.092;2022-07-30T11:02:39;4;4;
64229;PMS5003;50547;49.498;0.092;2022-07-30T11:05:39;4;4;
64229;PMS5003;50547;49.498;0.092;2022-07-30T11:08:41;4;4;
64229;PMS5003;50547;49.498;0.092;2022-07-30T11:11:41;4;4;
64229;PMS5003;50547;49.498;0.092;2022-07-30T11:14:11;6;6;
64229;PMS5003;50547;49.498;0.092;2022-07-30T11:16:58;4;4;
64229;PMS5003;50547;49.498;0.092;2022-07-30T11:19:28;4;4;
64229;PMS5003;50547;49.498;0.092;2022-07-30T11:22:21;4;4;
64229;PMS5003;50547;49.498;0.092;2022-07-30T11:24:52;4;4;
64229;PMS5003;50547;49.498;0.092;2022-07-30T11:27:39;4;4;
64229;PMS5003;50547;49.498;0.092;2022-07-30T11:30:41;5;5;
64229;PMS5003;50547;49.498;0.092;2022-07-30T11:33:26;4;4;
64229;PMS5003;50547;49.498;0.092;2022-07-30T11:36:04;4;4;
64229;PMS5003;50547;49.498;0.092;2022-07-30T11:39:07;4;4;
64229;PMS5003;50547;49.498;0.092;2022-07-30T11:41:36;4;4;
64229;PMS5003;50547;49.498;0.092;2022-07-30T11:44:38;4;4;
64229;PMS5003;50547;49.498;0.092;2022-07-30T11:47:07;4;4;
64229;PMS5003;50547;49.498;0.092;2022-07-30T11:49:36;3;3;
64229;PMS5003;50547;49.498;0.092;2022-07-30T11:52:05;4;4;
64229;PMS5003;50547;49.498;0.092;2022-07-30T11:54:49;3;3;
64229;PMS5003;50547;49.498;0.092;2022-07-30T11:57:19;3;3;
64229;PMS5003;50547;49.498;0.092;2022-07-30T12:00:10;3;3;
64229;PMS5003;50547;49.498;0.092;2022-07-30T12:02:40;3;3;
64229;PMS5003;50547;49.498;0.092;2022-07-30T12:05:09;2;2;
64229;PMS5003;50547;49.498;0.092;2022-07-30T12:07:38;3;3;
64229;PMS5003;50547;49.498;0.092;2022-07-30T12:10:11;3;3;
64229;PMS5003;50547;49.498;0.092;2022-07-30T12:12:43;4;4;
64229;PMS5003;50547;49.498;0.092;2022-07-30T12:15:26;2;2;
64229;PMS5003;50547;49.498;0.092;2022-07-30T12:17:57;2;2;
64229;PMS5003;50547;49.498;0.092;2022-07-30T12:20:26;3;3;
64229;PMS5003;50547;49.498;0.092;2022-07-30T12:23:08;4;4;
64229;PMS5003;50547;49.498;0.092;2022-07-30T12:25:38;3;3;
64229;PMS5003;50547;49.498;0.092;2022-07-30T12:28:08;4;4;
64229;PMS5003;50547;49.498;0.092;2022-07-30T12:30:38;2;2;
64229;PMS5003;50547;49.498;0.092;2022-07-30T12:33:08;3;3;
64229;PMS5003;50547;49.498;0.092;2022-07-30T12:35:40;2;2;
64229;PMS5003;50547;49.498;0.092;2022-07-30T12:38:10;3;3;
64229;PMS5003;50547;49.498;0.092;2022-07-30T12:40:57;3;3;
64229;PMS5003;50547;49.498;0.092;2022-07-30T12:43:44;2;2;
64229;PMS5003;50547;49.498;0.092;2022-07-30T12:46:16;1;1;
64229;PMS5003;50547;49.498;0.092;2022-07-30T12:48:55;2;2;
64229;PMS5003;50547;49.498;0.092;2022-07-30T12:51:26;1;1;
64229;PMS5003;50547;49.498;0.092;2022-07-30T12:53:57;2;2;
64229;PMS5003;50547;49.498;0.092;2022-07-30T12:56:26;2;2;
64229;PMS5003;50547;49.498;0.092;2022-07-30T12:58:57;1;1;
64229;PMS5003;50547;49.498;0.092;2022-07-30T13:01:43;2;2;
64229;PMS5003;50547;49.498;0.092;2022-07-30T13:04:13;1;1;
64229;PMS5003;50547;49.498;0.092;2022-07-30T13:06:42;1;1;
64229;PMS5003;50547;49.498;0.092;2022-07-30T13:09:17;2;2;
64229;PMS5003;50547;49.498;0.092;2022-07-30T13:11:47;2;2;
64229;PMS5003;50547;49.498;0.092;2022-07-30T13:14:16;1;1;
64229;PMS5003;50547;49.498;0.092;2022-07-30T13:16:45;1;1;
64229;PMS5003;50547;49.498;0.092;2022-07-30T13:19:14;3;3;
64229;PMS5003;50547;49.498;0.092;2022-07-30T13:21:43;1;1;
64229;PMS5003;50547;49.498;0.092;2022-07-30T13:24:13;1;1;
64229;PMS5003;50547;49.498;0.092;2022-07-30T13:26:42;1;1;
64229;PMS5003;50547;49.498;0.092;2022-07-30T13:29:11;2;2;
64229;PMS5003;50547;49.498;0.092;2022-07-30T13:31:40;2;2;
64229;PMS5003;50547;49.498;0.092;2022-07-30T13:34:10;2;2;
64229;PMS5003;50547;49.498;0.092;2022-07-30T13:36:39;1;1;
64229;PMS5003;50547;49.498;0.092;2022-07-30T13:39:08;1;1;
64229;PMS5003;50547;49.498;0.092;2022-07-30T13:41:37;1;1;
64229;PMS5003;50547;49.498;0.092;2022-07-30T13:44:06;2;2;
64229;PMS5003;50547;49.498;0.092;2022-07-30T13:46:35;2;2;
64229;PMS5003;50547;49.498;0.092;2022-07-30T13:49:04;2;2;
64229;PMS5003;50547;49.498;0.092;2022-07-30T13:51:34;1;1;
64229;PMS5003;50547;49.498;0.092;2022-07-30T13:54:02;2;2;
64229;PMS5003;50547;49.498;0.092;2022-07-30T13:56:31;1;1;
64229;PMS5003;50547;49.498;0.092;2022-07-30T13:59:00;1;1;
64229;PMS5003;50547;49.498;0.092;2022-07-30T14:01:29;1;1;
64229;PMS5003;50547;49.498;0.092;2022-07-30T14:03:59;1;1;
64229;PMS5003;50547;49.498;0.092;2022-07-30T14:06:28;1;1;
64229;PMS5003;50547;49.498;0.092;2022-07-30T14:08:56;1;1;
64229;PMS5003;50547;49.498;0.092;2022-07-30T14:11:25;1;1;
64229;PMS5003;50547;49.498;0.092;2022-07-30T14:13:54;2;2;
64229;PMS5003;50547;49.498;0.092;2022-07-30T14:16:23;1;1;
64229;PMS5003;50547;49.498;0.092;2022-07-30T14:18:52;1;1;
64229;PMS5003;50547;49.498;0.092;2022-07-30T14:21:22;1;1;
64229;PMS5003;50547;49.498;0.092;2022-07-30T14:23:51;1;1;
64229;PMS5003;50547;49.498;0.092;2022-07-30T14:26:20;1;1;
64229;PMS5003;50547;49.498;0.092;2022-07-30T14:28:49;1;1;
64229;PMS5003;50547;49.498;0.092;2022-07-30T14:31:18;1;1;
64229;PMS5003;50547;49.498;0.092;2022-07-30T14:33:47;1;1;
64229;PMS5003;50547;49.498;0.092;2022-07-30T14:36:16;1;1;
64229;PMS5003;50547;49.498;0.092;2022-07-30T14:38:45;1;1;
64229;PMS5003;50547;49.498;0.092;2022-07-30T14:41:14;1;1;
64229;PMS5003;50547;49.498;0.092;2022-07-30T14:43:43;1;1;
64229;PMS5003;50547;49.498;0.092;2022-07-30T14:46:12;1;1;
64229;PMS5003;50547;49.498;0.092;2022-07-30T14:48:41;1;1;
64229;PMS5003;50547;49.498;0.092;2022-07-30T14:51:10;1;1;
64229;PMS5003;50547;49.498;0.092;2022-07-30T14:53:39;1;1;
64229;PMS5003;50547;49.498;0.092;2022-07-30T14:56:08;1;1;
64229;PMS5003;50547;49.498;0.092;2022-07-30T14:58:37;1;1;
64229;PMS5003;50547;49.498;0.092;2022-07-30T15:01:06;1;1;
64229;PMS5003;50547;49.498;0.092;2022-07-30T15:04:26;1;1;
64229;PMS5003;50547;49.498;0.092;2022-07-30T15:06:55;1;1;
64229;PMS5003;50547;49.498;0.092;2022-07-30T15:09:25;1;1;
64229;PMS5003;50547;49.498;0.092;2022-07-30T15:11:54;1;1;
64229;PMS5003;50547;49.498;0.092;2022-07-30T15:14:23;1;1;
64229;PMS5003;50547;49.498;0.092;2022-07-30T15:16:52;1;1;
64229;PMS5003;50547;49.498;0.092;2022-07-30T15:19:21;1;1;
64229;PMS5003;50547;49.498;0.092;2022-07-30T15:21:50;1;1;
64229;PMS5003;50547;49.498;0.092;2022-07-30T15:24:19;1;1;
64229;PMS5003;50547;49.498;0.092;2022-07-30T15:26:48;1;1;
64229;PMS5003;50547;49.498;0.092;2022-07-30T15:29:17;1;1;
64229;PMS5003;50547;49.498;0.092;2022-07-30T15:31:46;1;1;
64229;PMS5003;50547;49.498;0.092;2022-07-30T15:34:15;1;1;
64229;PMS5003;50547;49.498;0.092;2022-07-30T15:36:45;1;1;
64229;PMS5003;50547;49.498;0.092;2022-07-30T15:39:14;1;1;
64229;PMS5003;50547;49.498;0.092;2022-07-30T15:41:43;1;1;
64229;PMS5003;50547;49.498;0.092;2022-07-30T15:44:12;1;1;
64229;PMS5003;50547;49.498;0.092;2022-07-30T15:46:47;1;1;
64229;PMS5003;50547;49.498;0.092;2022-07-30T15:49:16;1;1;
64229;PMS5003;50547;49.498;0.092;2022-07-30T15:51:45;1;1;
64229;PMS5003;50547;49.498;0.092;2022-07-30T15:54:15;1;1;
64229;PMS5003;50547;49.498;0.092;2022-07-30T15:56:46;1;1;
64229;PMS5003;50547;49.498;0.092;2022-07-30T15:59:14;1;1;
64229;PMS5003;50547;49.498;0.092;2022-07-30T16:02:08;1;1;
64229;PMS5003;50547;49.498;0.092;2022-07-30T16:04:37;1;1;
64229;PMS5003;50547;49.498;0.092;2022-07-30T16:07:06;1;1;
64229;PMS5003;50547;49.498;0.092;2022-07-30T16:09:35;1;1;
64229;PMS5003;50547;49.498;0.092;2022-07-30T16:12:04;1;1;
64229;PMS5003;50547;49.498;0.092;2022-07-30T16:14:34;1;1;
64229;PMS5003;50547;49.498;0.092;2022-07-30T16:17:03;1;1;
64229;PMS5003;50547;49.498;0.092;2022-07-30T16:19:32;1;1;
64229;PMS5003;50547;49.498;0.092;2022-07-30T16:22:01;1;1;
64229;PMS5003;50547;49.498;0.092;2022-07-30T16:24:31;1;1;
64229;PMS5003;50547;49.498;0.092;2022-07-30T16:27:00;2;2;
64229;PMS5003;50547;49.498;0.092;2022-07-30T16:29:29;3;3;
64229;PMS5003;50547;49.498;0.092;2022-07-30T16:31:58;1;1;
64229;PMS5003;50547;49.498;0.092;2022-07-30T16:34:27;2;2;
64229;PMS5003;50547;49.498;0.092;2022-07-30T16:36:56;2;2;
64229;PMS5003;50547;49.498;0.092;2022-07-30T16:39:25;1;1;
64229;PMS5003;50547;49.498;0.092;2022-07-30T16:41:54;1;1;
64229;PMS5003;50547;49.498;0.092;2022-07-30T16:44:23;3;3;
64229;PMS5003;50547;49.498;0.092;2022-07-30T16:46:52;1;1;
64229;PMS5003;50547;49.498;0.092;2022-07-30T16:49:21;1;1;
64229;PMS5003;50547;49.498;0.092;2022-07-30T16:51:50;2;2;
64229;PMS5003;50547;49.498;0.092;2022-07-30T16:54:20;1;1;
64229;PMS5003;50547;49.498;0.092;2022-07-30T16:56:49;1;1;
64229;PMS5003;50547;49.498;0.092;2022-07-30T16:59:18;1;1;
64229;PMS5003;50547;49.498;0.092;2022-07-30T17:01:47;2;2;
64229;PMS5003;50547;49.498;0.092;2022-07-30T17:04:13;1;1;
64229;PMS5003;50547;49.498;0.092;2022-07-30T17:06:43;2;2;
64229;PMS5003;50547;49.498;0.092;2022-07-30T17:09:12;1;1;